Time;durP1;ratioP1;P1;durP2;ratioP2;P2;SDS_P1;SDS_P2;PMS_P1;PMS_P2;Temp;Humidity;BMP_temperature;BMP_pressure;BME280_temperature;BME280_humidity;BME280_pressure;Samples;Min_cycle;Max_cycle;Signal;HPM_P1;HPM_P2
2021/10/02 00:36:25;;;;;;;6.90;2.95;;;14.80;99.90;;;;;;5011276;28;20537;-70
2021/10/02 00:47:06;;;;;;;3.55;2.63;;;14.70;99.90;;;;;;5010674;28;20036;-70
2021/10/02 00:49:34;;;;;;;4.55;2.90;;;14.70;99.90;;;;;;5009916;28;20034;-70
2021/10/02 00:52:00;;;;;;;5.15;2.92;;;14.80;99.90;;;;;;5009086;28;20084;-69
2021/10/02 00:54:26;;;;;;;8.13;3.75;;;14.70;99.90;;;;;;5010639;28;20034;-70
2021/10/02 00:56:52;;;;;;;4.95;2.70;;;14.70;99.90;;;;;;5010538;28;20470;-70
2021/10/02 00:59:17;;;;;;;6.38;3.55;;;14.70;99.90;;;;;;5009921;28;20030;-70
2021/10/02 01:01:52;;;;;;;7.78;2.83;;;14.70;99.90;;;;;;5010437;28;20058;-71
2021/10/02 01:04:38;;;;;;;3.85;2.50;;;14.70;99.90;;;;;;5011226;28;20036;-70
2021/10/02 01:07:24;;;;;;;3.65;2.05;;;14.70;99.90;;;;;;5010168;28;20045;-70
2021/10/02 01:10:12;;;;;;;5.60;2.42;;;14.70;99.90;;;;;;5010357;28;20026;-70
2021/10/02 01:12:52;;;;;;;7.25;3.00;;;14.80;99.90;;;;;;5009846;28;20154;-70
2021/10/02 01:15:55;;;;;;;6.10;3.10;;;14.70;99.90;;;;;;5010965;28;20029;-70
2021/10/02 01:18:33;;;;;;;6.20;2.80;;;14.70;99.90;;;;;;5010903;28;20455;-70
2021/10/02 01:21:24;;;;;;;7.18;2.83;;;14.70;99.90;;;;;;5010690;28;20172;-70
2021/10/02 01:24:05;;;;;;;4.85;2.50;;;14.70;99.90;;;;;;5013704;28;20029;-70
2021/10/02 01:26:37;;;;;;;2.72;2.30;;;14.70;99.90;;;;;;5014065;28;20440;-70
2021/10/02 01:29:08;;;;;;;4.47;2.42;;;14.70;99.90;;;;;;5013294;28;20033;-70
2021/10/02 01:34:36;;;;;;;7.20;2.53;;;14.70;99.90;;;;;;5013727;28;20110;-70
2021/10/02 01:47:54;;;;;;;6.90;2.70;;;14.60;99.90;;;;;;5013639;28;20379;-70
2021/10/02 01:50:26;;;;;;;4.00;2.08;;;14.60;99.90;;;;;;5012442;28;20387;-71
2021/10/02 01:52:52;;;;;;;;;;;14.60;99.90;;;;;;5012770;28;20026;-71
2021/10/02 01:55:19;;;;;;;4.03;2.03;;;14.60;99.90;;;;;;5014315;28;20342;-70
2021/10/02 01:57:49;;;;;;;6.60;3.20;;;14.70;99.90;;;;;;5012541;28;20026;-69
2021/10/02 02:00:16;;;;;;;4.32;2.38;;;14.60;99.90;;;;;;5013697;28;20058;-70
2021/10/02 02:02:46;;;;;;;6.45;2.72;;;14.60;99.90;;;;;;5013615;28;20057;-70
2021/10/02 02:05:16;;;;;;;7.65;2.65;;;14.50;99.90;;;;;;5013788;28;20030;-71
2021/10/02 02:07:48;;;;;;;4.45;2.63;;;14.50;99.90;;;;;;5012456;28;20029;-70
2021/10/02 02:10:15;;;;;;;6.65;2.72;;;14.50;99.90;;;;;;5012498;28;20502;-70
2021/10/02 02:12:43;;;;;;;4.82;2.65;;;14.40;99.90;;;;;;5013802;28;20032;-70
2021/10/02 02:15:11;;;;;;;6.45;2.63;;;14.40;99.90;;;;;;5011636;28;20040;-70
2021/10/02 02:17:41;;;;;;;3.75;2.10;;;14.50;99.90;;;;;;5013862;28;20026;-70
2021/10/02 02:20:08;;;;;;;5.60;1.92;;;14.50;99.90;;;;;;5013346;28;20037;-69
2021/10/02 02:22:34;;;;;;;6.68;2.20;;;14.50;99.90;;;;;;5012254;28;20026;-69
2021/10/02 02:25:00;;;;;;;5.63;2.30;;;14.50;99.90;;;;;;5011641;28;20057;-70
2021/10/02 02:27:28;;;;;;;4.80;1.75;;;14.50;99.90;;;;;;5012207;28;20117;-70
2021/10/02 02:29:53;;;;;;;5.72;2.25;;;14.50;99.90;;;;;;5011075;28;20191;-69
2021/10/02 02:32:20;;;;;;;6.60;2.05;;;14.60;99.90;;;;;;5011540;28;20125;-70
2021/10/02 02:34:47;;;;;;;5.00;2.17;;;14.70;99.90;;;;;;5013183;28;20037;-70
2021/10/02 02:37:12;;;;;;;4.60;2.22;;;14.60;99.90;;;;;;5010846;28;20030;-70
2021/10/02 02:39:38;;;;;;;9.50;2.35;;;14.60;99.90;;;;;;5013047;28;20089;-71
2021/10/02 02:42:05;;;;;;;3.40;1.63;;;14.60;99.90;;;;;;5012287;28;20061;-70
2021/10/02 02:44:31;;;;;;;9.60;2.15;;;14.50;99.90;;;;;;5011824;28;20468;-70
2021/10/02 02:47:02;;;;;;;5.13;1.88;;;14.50;99.90;;;;;;5010966;28;20022;-71
2021/10/02 02:49:41;;;;;;;4.80;1.88;;;14.60;99.90;;;;;;5011710;28;20030;-70
2021/10/02 02:52:24;;;;;;;2.97;2.10;;;14.60;99.90;;;;;;5012250;28;20038;-70
2021/10/02 02:55:20;;;;;;;4.35;1.80;;;14.60;99.90;;;;;;5011383;28;20029;-71
2021/10/02 02:57:54;;;;;;;3.83;1.88;;;14.60;99.90;;;;;;5013194;28;20558;-70
2021/10/02 03:00:22;;;;;;;4.97;2.20;;;14.60;99.90;;;;;;5012882;28;20050;-70
2021/10/02 03:03:05;;;;;;;6.28;2.20;;;14.70;99.90;;;;;;5013094;28;20212;-70
2021/10/02 03:05:31;;;;;;;6.45;1.80;;;14.60;99.90;;;;;;5012546;28;20398;-69
2021/10/02 03:08:06;;;;;;;4.20;2.22;;;14.70;99.90;;;;;;5010630;28;20022;-69
2021/10/02 03:10:32;;;;;;;5.30;2.00;;;14.60;99.90;;;;;;5012816;28;20038;-70
2021/10/02 03:13:03;;;;;;;3.92;1.92;;;14.70;99.90;;;;;;5012488;28;20038;-70
2021/10/02 03:15:30;;;;;;;3.60;2.20;;;14.60;99.90;;;;;;5011592;28;20391;-70
2021/10/02 03:17:57;;;;;;;11.57;2.22;;;14.60;99.90;;;;;;5011890;28;20383;-70
2021/10/02 03:20:25;;;;;;;5.75;2.20;;;14.60;99.90;;;;;;5011301;28;20036;-70
2021/10/02 03:22:54;;;;;;;5.60;2.60;;;14.60;99.90;;;;;;5012336;28;20037;-70
2021/10/02 03:25:26;;;;;;;8.38;2.40;;;14.60;99.90;;;;;;5011252;28;20466;-69
2021/10/02 03:27:54;;;;;;;6.00;2.10;;;14.60;99.90;;;;;;5010444;28;20026;-71
2021/10/02 03:30:21;;;;;;;2.63;1.60;;;14.50;99.90;;;;;;5011522;28;20117;-69
2021/10/02 03:32:48;;;;;;;4.78;2.08;;;14.60;99.90;;;;;;5012309;28;20049;-69
2021/10/02 03:35:16;;;;;;;26.80;2.78;;;14.60;99.90;;;;;;5011338;28;20030;-69
2021/10/02 03:37:42;;;;;;;5.47;1.58;;;14.60;99.90;;;;;;5010740;28;20022;-69
2021/10/02 03:40:09;;;;;;;7.32;1.85;;;14.60;99.90;;;;;;5010265;28;20026;-70
2021/10/02 03:42:52;;;;;;;8.35;2.20;;;14.60;99.90;;;;;;5010484;28;20026;-70
2021/10/02 03:45:20;;;;;;;4.13;1.77;;;14.60;99.90;;;;;;5012038;28;20086;-70
2021/10/02 03:47:46;;;;;;;4.82;2.17;;;14.60;99.90;;;;;;5012092;28;20022;-70
2021/10/02 03:50:12;;;;;;;6.82;1.92;;;14.60;99.90;;;;;;5011094;28;20045;-70
2021/10/02 03:52:38;;;;;;;6.22;2.20;;;14.70;99.90;;;;;;5011755;28;20037;-69
2021/10/02 03:55:06;;;;;;;4.35;2.25;;;14.70;99.90;;;;;;5009813;28;20099;-69
2021/10/02 03:57:32;;;;;;;10.82;2.25;;;14.70;99.90;;;;;;5010637;28;20033;-69
2021/10/02 03:59:57;;;;;;;4.85;1.55;;;14.70;99.90;;;;;;5009456;28;20055;-69
2021/10/02 04:02:23;;;;;;;3.15;1.92;;;14.70;99.90;;;;;;5010399;28;20079;-69
2021/10/02 04:04:49;;;;;;;3.20;1.80;;;14.70;99.90;;;;;;5011465;28;20117;-69
2021/10/02 04:07:15;;;;;;;4.32;1.58;;;14.70;99.90;;;;;;5009758;28;20030;-69
2021/10/02 04:09:41;;;;;;;4.65;2.00;;;14.80;99.90;;;;;;5010204;28;20532;-69
2021/10/02 04:12:07;;;;;;;4.00;1.70;;;14.70;99.90;;;;;;5011042;28;20034;-70
2021/10/02 04:14:33;;;;;;;3.92;2.13;;;14.70;99.90;;;;;;5010402;28;20021;-70
2021/10/02 04:16:59;;;;;;;6.05;2.20;;;14.70;99.90;;;;;;5010983;28;20197;-70
2021/10/02 04:19:25;;;;;;;5.88;2.10;;;14.70;99.90;;;;;;5011700;28;20025;-69
2021/10/02 04:21:51;;;;;;;6.30;1.92;;;14.60;99.90;;;;;;5011705;28;20026;-69
2021/10/02 04:24:18;;;;;;;5.00;1.90;;;14.70;99.90;;;;;;4993006;28;20046;-70
2021/10/02 04:26:44;;;;;;;4.72;2.05;;;14.60;99.90;;;;;;5010127;28;20554;-70
2021/10/02 04:29:10;;;;;;;4.32;1.77;;;14.60;99.90;;;;;;5009206;28;20124;-70
2021/10/02 04:31:36;;;;;;;2.25;1.50;;;14.70;99.90;;;;;;5010012;28;20037;-70
2021/10/02 04:34:02;;;;;;;3.80;1.55;;;14.60;99.90;;;;;;5009399;28;20080;-69
2021/10/02 04:36:28;;;;;;;4.15;1.63;;;14.60;99.90;;;;;;5011345;28;20032;-68
2021/10/02 04:38:54;;;;;;;5.28;1.83;;;14.70;99.90;;;;;;5009939;28;20058;-70
2021/10/02 04:41:20;;;;;;;4.68;1.92;;;14.70;99.90;;;;;;5009263;28;20126;-69
2021/10/02 04:43:46;;;;;;;4.65;1.70;;;14.70;99.90;;;;;;5010978;28;20026;-70
2021/10/02 04:46:14;;;;;;;4.68;1.77;;;14.50;99.90;;;;;;5009223;28;20502;-70
2021/10/02 04:48:40;;;;;;;4.90;1.67;;;14.60;99.90;;;;;;5010994;28;20249;-70
2021/10/02 04:51:06;;;;;;;2.45;1.50;;;14.60;99.90;;;;;;5009177;28;20033;-70
2021/10/02 04:53:32;;;;;;;2.28;1.60;;;14.60;99.90;;;;;;5009845;28;20026;-69
2021/10/02 04:56:00;;;;;;;3.97;1.60;;;14.60;99.90;;;;;;5013879;28;20022;-70
2021/10/02 04:58:29;;;;;;;7.20;1.75;;;14.60;99.90;;;;;;5013670;28;20033;-69
2021/10/02 05:00:55;;;;;;;1.50;1.05;;;14.60;99.90;;;;;;5014749;28;21653;-69
2021/10/02 05:03:21;;;;;;;4.57;1.40;;;14.70;99.90;;;;;;5013213;28;20041;-70
2021/10/02 05:05:47;;;;;;;2.25;1.30;;;14.70;99.90;;;;;;5015146;28;20026;-70
2021/10/02 05:08:13;;;;;;;9.65;1.92;;;14.70;99.90;;;;;;5013082;28;20121;-70
2021/10/02 05:10:39;;;;;;;2.75;1.20;;;14.80;99.90;;;;;;5014880;28;20037;-69
2021/10/02 05:13:05;;;;;;;4.07;2.05;;;14.70;99.90;;;;;;5014510;28;20054;-69
2021/10/02 05:15:31;;;;;;;6.20;1.48;;;14.70;99.90;;;;;;5013395;28;20028;-69
2021/10/02 05:17:57;;;;;;;7.40;1.73;;;14.70;99.90;;;;;;5014845;28;20026;-70
2021/10/02 05:20:23;;;;;;;2.90;1.48;;;14.70;99.90;;;;;;5012626;28;20080;-69
2021/10/02 05:22:48;;;;;;;3.78;1.63;;;14.70;99.90;;;;;;5014476;28;20030;-70
2021/10/02 05:25:14;;;;;;;2.40;1.75;;;14.70;99.90;;;;;;5013973;28;20434;-71
2021/10/02 05:27:40;;;;;;;1.85;1.52;;;14.70;99.90;;;;;;5014395;28;20105;-70
2021/10/02 05:30:06;;;;;;;6.45;1.98;;;14.70;99.90;;;;;;5012261;28;20064;-71
2021/10/02 05:32:31;;;;;;;7.65;2.45;;;14.60;99.90;;;;;;5013400;28;20050;-71
2021/10/02 05:34:57;;;;;;;7.32;1.85;;;14.70;99.90;;;;;;5013235;28;20034;-70
2021/10/02 05:37:24;;;;;;;2.42;1.38;;;14.70;99.90;;;;;;5014730;28;20041;-71
2021/10/02 05:39:51;;;;;;;6.80;2.17;;;14.80;99.90;;;;;;5014267;28;20103;-70
2021/10/02 05:42:16;;;;;;;3.15;1.83;;;14.80;99.90;;;;;;5013909;28;20036;-70
2021/10/02 05:44:42;;;;;;;6.38;1.95;;;14.70;99.90;;;;;;5012901;28;20379;-70
2021/10/02 05:47:08;;;;;;;5.70;1.60;;;14.80;99.90;;;;;;5013825;28;20068;-69
2021/10/02 05:49:34;;;;;;;2.95;1.70;;;14.80;99.90;;;;;;5014310;28;20375;-71
2021/10/02 05:52:00;;;;;;;4.65;1.50;;;14.80;99.90;;;;;;5013103;28;20029;-70
2021/10/02 05:54:25;;;;;;;6.53;2.05;;;14.80;99.90;;;;;;5012887;28;20390;-70
2021/10/02 05:56:51;;;;;;;7.90;2.05;;;14.90;99.90;;;;;;5014075;28;20033;-70
2021/10/02 05:59:17;;;;;;;3.63;1.95;;;14.90;99.90;;;;;;5012118;28;20057;-71
2021/10/02 06:01:43;;;;;;;6.57;1.70;;;15.00;99.90;;;;;;5014102;28;20077;-70
2021/10/02 06:04:08;;;;;;;4.40;1.50;;;15.00;99.90;;;;;;5013105;28;20082;-70
2021/10/02 06:06:34;;;;;;;7.90;1.70;;;15.10;99.90;;;;;;5011897;28;20061;-70
2021/10/02 06:08:59;;;;;;;13.48;2.20;;;15.10;99.90;;;;;;5013970;28;20109;-70
2021/10/02 06:11:25;;;;;;;4.15;1.38;;;15.10;99.90;;;;;;5013029;28;20441;-70
2021/10/02 06:13:51;;;;;;;4.25;1.42;;;15.10;99.90;;;;;;5013701;28;20480;-70
2021/10/02 06:16:19;;;;;;;6.47;2.00;;;15.10;99.90;;;;;;5012871;28;20427;-69
2021/10/02 06:18:45;;;;;;;6.20;2.03;;;15.00;99.90;;;;;;5013485;28;20026;-69
2021/10/02 06:21:12;;;;;;;2.53;1.30;;;15.10;99.90;;;;;;5011457;28;20054;-70
2021/10/02 06:23:38;;;;;;;3.90;1.92;;;15.10;99.90;;;;;;5012319;28;20140;-69
2021/10/02 06:26:05;;;;;;;5.38;2.00;;;14.90;99.90;;;;;;5012655;28;20491;-70
2021/10/02 06:28:31;;;;;;;4.68;2.08;;;15.00;99.90;;;;;;5013100;28;20105;-70
2021/10/02 06:30:57;;;;;;;2.97;1.60;;;14.90;99.90;;;;;;5013310;28;20073;-70
2021/10/02 06:33:23;;;;;;;7.05;1.85;;;14.80;99.90;;;;;;5011504;28;20036;-69
2021/10/02 06:35:49;;;;;;;5.88;1.75;;;14.90;99.90;;;;;;5012084;28;20029;-70
2021/10/02 06:38:15;;;;;;;4.47;1.52;;;14.80;99.90;;;;;;5012322;28;20104;-70
2021/10/02 06:40:43;;;;;;;7.45;1.85;;;14.80;99.90;;;;;;5011525;28;20034;-70
2021/10/02 06:43:10;;;;;;;3.97;1.85;;;14.80;99.90;;;;;;5011066;28;20033;-71
2021/10/02 06:45:35;;;;;;;10.32;2.40;;;14.70;99.90;;;;;;5012813;28;20030;-70
2021/10/02 06:48:02;;;;;;;4.72;2.20;;;14.70;99.90;;;;;;5012787;28;20117;-69
2021/10/02 06:50:27;;;;;;;5.70;2.10;;;14.80;99.90;;;;;;5010608;28;20073;-73
2021/10/02 06:52:54;;;;;;;6.00;2.40;;;14.90;99.90;;;;;;4995985;28;20062;-76
2021/10/02 06:55:21;;;;;;;3.95;1.88;;;14.80;99.90;;;;;;5010835;28;20029;-72
2021/10/02 06:57:47;;;;;;;5.00;2.30;;;14.70;99.90;;;;;;5011393;28;20038;-70
2021/10/02 07:00:13;;;;;;;6.03;2.35;;;14.70;99.90;;;;;;5010532;28;20040;-70
2021/10/02 07:02:43;;;;;;;4.65;2.03;;;14.80;99.90;;;;;;5011227;28;20061;-72
2021/10/02 07:05:11;;;;;;;8.38;1.60;;;14.80;99.90;;;;;;5011854;28;20025;-69
2021/10/02 07:07:37;;;;;;;3.55;1.85;;;14.80;99.90;;;;;;5012282;28;20379;-70
2021/10/02 07:10:04;;;;;;;4.40;2.08;;;14.90;99.90;;;;;;5012073;28;20135;-70
2021/10/02 07:12:30;;;;;;;3.58;2.05;;;14.90;99.90;;;;;;5011241;28;20049;-70
2021/10/02 07:14:56;;;;;;;2.40;2.00;;;15.00;99.90;;;;;;5011210;28;20127;-69
2021/10/02 07:17:21;;;;;;;5.85;1.98;;;15.10;99.90;;;;;;5011483;28;20026;-69
2021/10/02 07:19:47;;;;;;;7.60;2.45;;;15.40;99.90;;;;;;5011880;28;20037;-76
2021/10/02 07:22:13;;;;;;;4.20;1.75;;;15.40;99.90;;;;;;5010339;28;20030;-72
2021/10/02 07:24:39;;;;;;;4.38;2.30;;;15.40;99.90;;;;;;5012420;28;20101;-69
2021/10/02 07:27:05;;;;;;;8.88;1.75;;;15.50;99.90;;;;;;5012202;28;20021;-71
2021/10/02 07:29:32;;;;;;;3.70;1.77;;;15.60;99.90;;;;;;5011989;28;20156;-70
2021/10/02 07:31:58;;;;;;;3.53;2.03;;;15.70;99.90;;;;;;5010833;28;20030;-69
2021/10/02 07:34:24;;;;;;;6.82;1.73;;;15.70;99.90;;;;;;5010965;28;20029;-70
2021/10/02 07:36:50;;;;;;;5.07;1.63;;;15.80;99.90;;;;;;5010949;28;20470;-72
2021/10/02 07:39:15;;;;;;;3.17;1.75;;;15.90;99.90;;;;;;5011081;28;20041;-70
2021/10/02 07:41:44;;;;;;;2.85;1.65;;;15.70;99.90;;;;;;5012188;28;20091;-70
2021/10/02 07:44:12;;;;;;;5.18;1.70;;;15.70;99.90;;;;;;5011133;28;20030;-70
2021/10/02 07:46:46;;;;;;;3.83;1.95;;;15.80;99.90;;;;;;5010607;28;20120;-71
2021/10/02 07:49:12;;;;;;;2.22;1.40;;;15.80;99.90;;;;;;5009954;28;20042;-70
2021/10/02 07:51:38;;;;;;;1.80;1.30;;;16.10;99.90;;;;;;5010662;28;20030;-70
2021/10/02 07:54:05;;;;;;;7.43;1.77;;;16.40;99.90;;;;;;5011219;28;20120;-71
2021/10/02 07:56:35;;;;;;;1.98;1.63;;;16.60;99.90;;;;;;5011687;28;20034;-73
2021/10/02 07:59:05;;;;;;;3.13;1.67;;;16.80;99.90;;;;;;5010109;28;20030;-71
2021/10/02 08:01:31;;;;;;;3.15;1.45;;;16.90;99.90;;;;;;5010696;28;20046;-73
2021/10/02 08:03:57;;;;;;;3.92;1.63;;;16.90;99.90;;;;;;5011051;28;20034;-71
2021/10/02 08:06:24;;;;;;;2.70;1.10;;;17.00;99.90;;;;;;5009668;28;20032;-72
2021/10/02 08:08:50;;;;;;;4.30;1.95;;;17.40;99.90;;;;;;5011561;28;20053;-71
2021/10/02 08:11:17;;;;;;;2.45;1.10;;;17.40;99.90;;;;;;5008548;28;20408;-70
2021/10/02 08:13:42;;;;;;;2.35;0.98;;;17.30;99.90;;;;;;5003636;28;20438;-72
2021/10/02 08:16:09;;;;;;;2.30;1.20;;;17.30;99.90;;;;;;5011401;28;20029;-71
2021/10/02 08:18:40;;;;;;;6.15;1.40;;;17.70;99.90;;;;;;5010835;28;20034;-72
2021/10/02 08:21:07;;;;;;;4.43;1.73;;;17.90;99.90;;;;;;5009707;28;20030;-71
2021/10/02 08:23:38;;;;;;;4.15;1.38;;;17.90;99.90;;;;;;5009949;28;20026;-71
2021/10/02 08:26:06;;;;;;;4.25;1.30;;;18.20;99.90;;;;;;5008527;28;20034;-70
2021/10/02 08:28:33;;;;;;;5.22;1.58;;;18.40;99.90;;;;;;5008216;28;20029;-70
2021/10/02 08:31:02;;;;;;;4.65;1.02;;;18.60;99.90;;;;;;5009836;28;20310;-71
2021/10/02 08:33:28;;;;;;;2.38;1.45;;;18.60;99.90;;;;;;5008190;28;20026;-70
2021/10/02 08:35:54;;;;;;;2.28;1.20;;;18.50;99.90;;;;;;5008657;28;20026;-71
2021/10/02 08:38:20;;;;;;;4.22;1.48;;;18.80;99.90;;;;;;5007778;28;20113;-70
2021/10/02 08:40:46;;;;;;;4.65;1.20;;;18.60;99.80;;;;;;5007901;28;20034;-71
2021/10/02 08:43:13;;;;;;;3.88;0.98;;;18.70;99.40;;;;;;5007781;28;20025;-71
2021/10/02 08:45:40;;;;;;;4.10;1.23;;;18.70;99.90;;;;;;5008453;28;20127;-80
2021/10/02 08:48:10;;;;;;;3.88;1.27;;;19.10;99.10;;;;;;5002845;28;20041;-77
2021/10/02 08:50:40;;;;;;;6.97;1.30;;;19.20;98.70;;;;;;4991038;28;20034;-72
2021/10/02 08:53:07;;;;;;;2.42;1.08;;;19.30;98.90;;;;;;5005765;28;20072;-71
2021/10/02 08:55:34;;;;;;;5.45;1.17;;;19.20;98.70;;;;;;4990581;28;20026;-76
2021/10/02 08:58:00;;;;;;;8.57;2.30;;;19.00;98.80;;;;;;4991113;28;20101;-81
2021/10/02 09:00:27;;;;;;;5.13;1.63;;;19.30;99.60;;;;;;5005964;28;20060;-53
2021/10/02 09:02:53;;;;;;;6.75;2.30;;;19.00;98.90;;;;;;4997223;28;20136;-52
2021/10/02 09:05:21;;;;;;;6.57;1.80;;;19.50;99.90;;;;;;5003252;28;20030;-53
2021/10/02 09:07:50;;;;;;;14.27;2.30;;;19.50;98.80;;;;;;5007180;28;20040;-52
2021/10/02 09:10:17;;;;;;;7.40;2.35;;;19.50;98.80;;;;;;5007288;28;20034;-55
2021/10/02 09:12:44;;;;;;;6.78;1.80;;;19.70;98.30;;;;;;5007813;28;20033;-53
2021/10/02 09:15:12;;;;;;;4.72;1.67;;;19.80;98.00;;;;;;5006748;28;20052;-58
2021/10/02 09:17:39;;;;;;;4.80;1.73;;;20.30;98.20;;;;;;5008883;28;20132;-56
2021/10/02 09:20:07;;;;;;;5.45;1.55;;;20.70;98.50;;;;;;5009578;28;20416;-56
2021/10/02 09:22:34;;;;;;;5.75;1.77;;;20.90;97.00;;;;;;5007521;28;20502;-54
2021/10/02 09:25:02;;;;;;;2.42;0.93;;;21.50;98.40;;;;;;5005835;28;20460;-74
2021/10/02 09:27:30;;;;;;;2.72;0.98;;;21.30;97.50;;;;;;5004199;28;20022;-71
2021/10/02 09:30:11;;;;;;;4.55;1.05;;;21.00;97.70;;;;;;5008800;28;20038;-71
2021/10/02 09:32:41;;;;;;;1.33;0.80;;;21.00;98.10;;;;;;5001709;28;20380;-72
2021/10/02 09:35:12;;;;;;;3.83;1.25;;;21.00;98.00;;;;;;4991446;28;20417;-73
2021/10/02 09:37:41;;;;;;;6.35;1.55;;;20.90;97.80;;;;;;5007032;28;20042;-71
2021/10/02 09:40:13;;;;;;;3.38;0.80;;;20.50;98.00;;;;;;4990446;28;20026;-72
2021/10/02 09:42:42;;;;;;;3.63;1.20;;;20.20;98.20;;;;;;4992017;28;20099;-72
2021/10/02 09:45:20;;;;;;;2.53;1.20;;;20.50;97.90;;;;;;4994450;28;20049;-72
2021/10/02 09:47:50;;;;;;;3.53;0.90;;;20.60;98.10;;;;;;4990570;28;20480;-72
2021/10/02 09:50:22;;;;;;;4.28;1.02;;;21.00;97.80;;;;;;4994390;28;20080;-73
2021/10/02 09:52:50;;;;;;;2.42;0.73;;;21.20;97.30;;;;;;5005266;28;20352;-73
2021/10/02 09:55:47;;;;;;;2.38;0.82;;;21.40;96.90;;;;;;4981848;28;20105;-72
2021/10/02 09:58:29;;;;;;;2.38;0.80;;;21.70;97.80;;;;;;4990269;28;20034;-71
2021/10/02 10:00:57;;;;;;;3.80;0.85;;;21.50;97.60;;;;;;5004197;28;20068;-73
2021/10/02 10:03:23;;;;;;;2.92;0.90;;;21.50;94.20;;;;;;5011051;28;20113;-72
2021/10/02 10:05:51;;;;;;;5.82;0.93;;;21.40;94.60;;;;;;4978476;28;20132;-72
2021/10/02 10:08:26;;;;;;;2.83;1.13;;;21.20;94.50;;;;;;4992630;28;20045;-72
2021/10/02 10:11:14;;;;;;;3.58;1.27;;;21.10;95.10;;;;;;5010803;28;20053;-73
2021/10/02 10:13:40;;;;;;;2.75;1.13;;;21.20;94.70;;;;;;5019429;28;20144;-73
2021/10/02 10:16:09;;;;;;;4.18;1.00;;;20.90;94.80;;;;;;4993875;28;20065;-72
2021/10/02 10:18:40;;;;;;;19.02;2.72;;;20.70;95.30;;;;;;5010250;28;20102;-73
2021/10/02 10:21:08;;;;;;;4.17;1.33;;;21.20;94.90;;;;;;5010984;28;20030;-73
2021/10/02 10:23:39;;;;;;;2.05;0.80;;;21.60;94.30;;;;;;5010670;28;20076;-73
2021/10/02 10:26:17;;;;;;;4.05;1.10;;;21.80;94.00;;;;;;5012656;28;20494;-72
2021/10/02 10:28:46;;;;;;;3.50;1.10;;;21.90;93.60;;;;;;5011443;28;20034;-72
2021/10/02 10:31:15;;;;;;;3.08;1.50;;;21.50;93.70;;;;;;5009838;28;20452;-73
2021/10/02 10:33:45;;;;;;;7.40;1.08;;;21.80;93.80;;;;;;5009092;28;20148;-73
2021/10/02 10:36:12;;;;;;;3.35;1.02;;;21.80;93.60;;;;;;5009850;28;20130;-73
2021/10/02 10:38:39;;;;;;;4.35;1.35;;;21.80;93.70;;;;;;5006361;28;20072;-73
2021/10/02 10:41:05;;;;;;;1.35;0.95;;;22.00;93.40;;;;;;5007625;28;20171;-73
2021/10/02 10:43:33;;;;;;;5.88;1.27;;;22.30;93.10;;;;;;4992862;28;20057;-72
2021/10/02 10:46:08;;;;;;;2.60;1.20;;;22.70;92.60;;;;;;5009267;28;20034;-72
2021/10/02 10:48:34;;;;;;;3.67;1.88;;;22.70;93.60;;;;;;5008807;28;20579;-58
2021/10/02 10:51:06;;;;;;;3.97;1.00;;;22.50;95.90;;;;;;5009101;28;20485;-58
2021/10/02 10:53:34;;;;;;;;;;;22.30;99.90;;;;;;5009425;28;20025;-58
2021/10/02 10:56:00;;;;;;;4.18;0.90;;;22.40;99.90;;;;;;5005225;28;20343;-58
2021/10/02 10:58:28;;;;;;;5.82;1.42;;;22.50;99.90;;;;;;4970730;28;20054;-58
2021/10/02 11:00:56;;;;;;;2.63;0.65;;;22.90;93.80;;;;;;4998271;28;20102;-58
2021/10/02 11:03:39;;;;;;;3.38;1.50;;;22.90;93.00;;;;;;4998461;28;20038;-69
2021/10/02 11:06:08;;;;;;;3.28;1.30;;;22.80;93.30;;;;;;5000076;28;20447;-62
2021/10/02 11:08:51;;;;;;;2.50;1.17;;;23.00;93.10;;;;;;5000285;28;20019;-56
2021/10/02 11:11:27;;;;;;;1.42;0.68;;;23.10;93.20;;;;;;4999773;28;20065;-57
2021/10/02 11:13:54;;;;;;;5.13;1.25;;;23.10;92.10;;;;;;5004843;28;20097;-57
2021/10/02 11:16:36;;;;;;;4.70;1.00;;;23.50;92.00;;;;;;5009373;28;20034;-65
2021/10/02 11:19:23;;;;;;;4.68;0.85;;;23.00;91.70;;;;;;5009964;28;20096;-58
2021/10/02 11:22:02;;;;;;;4.70;0.77;;;23.00;91.70;;;;;;5007968;28;20044;-57
2021/10/02 11:24:37;;;;;;;2.83;1.00;;;23.10;91.90;;;;;;5008756;28;20029;-57
2021/10/02 11:27:03;;;;;;;3.13;0.80;;;23.00;91.50;;;;;;5011277;28;20026;-57
2021/10/02 11:29:32;;;;;;;2.05;1.00;;;22.90;91.40;;;;;;5009292;28;20449;-57
2021/10/02 11:32:16;;;;;;;2.63;1.15;;;23.10;91.70;;;;;;5009672;28;20026;-57
2021/10/02 11:35:20;;;;;;;4.35;0.98;;;23.10;91.90;;;;;;5010748;28;20025;-57
2021/10/02 11:38:05;;;;;;;3.05;0.77;;;22.80;92.20;;;;;;5009524;28;20034;-57
2021/10/02 11:40:40;;;;;;;4.53;1.85;;;23.10;91.40;;;;;;5008801;28;20121;-57
2021/10/02 11:43:22;;;;;;;3.83;0.82;;;23.10;91.10;;;;;;5009622;28;20052;-57
2021/10/02 11:46:06;;;;;;;1.33;0.85;;;22.80;90.70;;;;;;5011114;28;20038;-58
2021/10/02 11:48:40;;;;;;;2.42;1.30;;;23.00;90.60;;;;;;5009004;28;20030;-75
2021/10/02 11:51:21;;;;;;;1.65;1.10;;;23.40;90.30;;;;;;5009785;28;20048;-72
2021/10/02 11:54:07;;;;;;;3.92;1.50;;;24.10;88.40;;;;;;5010177;28;20041;-72
2021/10/02 11:56:35;;;;;;;2.28;1.20;;;24.30;86.00;;;;;;4997753;28;20044;-72
2021/10/02 11:59:02;;;;;;;2.60;1.48;;;23.80;87.50;;;;;;5009317;28;20052;-71
2021/10/02 12:01:48;;;;;;;1.88;1.10;;;23.30;88.00;;;;;;5009666;28;20096;-73
2021/10/02 12:04:15;;;;;;;2.38;1.58;;;23.00;89.10;;;;;;5008217;28;20040;-72
2021/10/02 12:06:46;;;;;;;2.92;0.77;;;23.30;88.70;;;;;;5008341;28;20524;-71
2021/10/02 12:09:16;;;;;;;;;;;23.50;87.00;;;;;;5009174;28;20052;-70
2021/10/02 12:11:47;;;;;;;0.82;0.70;;;23.50;86.10;;;;;;5008462;28;19928;-72
2021/10/02 12:14:18;;;;;;;1.88;0.98;;;23.20;86.30;;;;;;5010456;28;20116;-72
2021/10/02 12:17:00;;;;;;;5.43;1.13;;;23.20;86.30;;;;;;5008228;28;20049;-71
2021/10/02 12:19:27;;;;;;;3.33;1.23;;;23.00;85.90;;;;;;5009559;28;20025;-71
2021/10/02 12:21:58;;;;;;;1.58;1.23;;;23.20;86.80;;;;;;5010526;28;20030;-72
2021/10/02 12:24:46;;;;;;;5.75;1.50;;;23.80;85.10;;;;;;5008729;28;20068;-72
2021/10/02 12:27:16;;;;;;;1.73;1.35;;;24.00;84.80;;;;;;4952585;28;20062;-72
2021/10/02 12:29:42;;;;;;;4.60;1.30;;;24.00;83.40;;;;;;4951841;28;20261;-74
2021/10/02 12:32:13;;;;;;;1.83;0.98;;;24.20;83.10;;;;;;4965830;28;20049;-73
2021/10/02 12:34:51;;;;;;;3.13;1.10;;;24.00;82.60;;;;;;4941774;28;20039;-72
2021/10/02 12:37:20;;;;;;;3.42;1.58;;;23.80;83.80;;;;;;4954365;28;20094;-73
2021/10/02 12:39:49;;;;;;;2.40;0.95;;;23.60;82.60;;;;;;4951879;28;20027;-72
2021/10/02 12:42:40;;;;;;;1.95;1.08;;;23.50;82.40;;;;;;4952269;28;20375;-72
2021/10/02 12:45:13;;;;;;;5.63;0.95;;;23.10;82.90;;;;;;4939341;28;20408;-71
2021/10/02 12:47:40;;;;;;;1.80;1.00;;;23.30;82.40;;;;;;4951977;28;20141;-72
2021/10/02 12:50:15;;;;;;;3.28;1.40;;;23.50;82.00;;;;;;4952045;28;20118;-72
2021/10/02 12:52:41;;;;;;;2.28;1.40;;;23.60;81.90;;;;;;4952265;28;20038;-74
2021/10/02 12:55:13;;;;;;;2.60;0.88;;;23.10;82.50;;;;;;4952352;28;20118;-72
2021/10/02 12:57:38;;;;;;;;;;;23.30;82.70;;;;;;4966941;28;20105;-71
2021/10/02 13:00:20;;;;;;;2.17;1.10;;;23.70;82.40;;;;;;4968815;28;20372;-72
2021/10/02 13:02:48;;;;;;;2.78;1.33;;;23.80;81.40;;;;;;4967373;28;20138;-72
2021/10/02 13:05:16;;;;;;;1.88;0.80;;;23.20;81.90;;;;;;5004200;28;20085;-72
2021/10/02 13:07:50;;;;;;;3.42;1.60;;;23.30;81.90;;;;;;5007906;28;20037;-72
2021/10/02 13:10:28;;;;;;;2.03;1.35;;;23.10;82.90;;;;;;5008708;28;20110;-73
2021/10/02 13:12:53;;;;;;;2.83;1.10;;;23.00;83.50;;;;;;5010610;28;20026;-73
2021/10/02 13:15:28;;;;;;;2.75;1.55;;;23.50;82.40;;;;;;5009400;28;20088;-74
2021/10/02 13:18:02;;;;;;;1.38;0.68;;;23.30;82.70;;;;;;5014497;28;20026;-74
2021/10/02 13:20:30;;;;;;;1.25;0.90;;;23.20;82.20;;;;;;5011798;28;20157;-73
2021/10/02 13:22:56;;;;;;;2.53;1.10;;;23.00;82.80;;;;;;5013603;28;20026;-73
2021/10/02 13:25:26;;;;;;;2.40;1.00;;;23.10;82.90;;;;;;5012454;28;20029;-74
2021/10/02 13:27:55;;;;;;;2.15;1.20;;;23.40;82.90;;;;;;5014110;28;20451;-75
2021/10/02 13:30:33;;;;;;;6.60;1.55;;;23.60;82.70;;;;;;5009617;28;20034;-74
2021/10/02 13:33:08;;;;;;;2.38;1.13;;;23.20;82.80;;;;;;5005951;28;20032;-75
2021/10/02 13:35:40;;;;;;;1.95;1.00;;;23.30;82.70;;;;;;5011623;28;20034;-74
2021/10/02 13:38:09;;;;;;;3.10;0.95;;;22.70;83.60;;;;;;5013655;28;20022;-74
2021/10/02 13:40:38;;;;;;;3.05;1.30;;;22.40;85.10;;;;;;5013118;28;20034;-75
2021/10/02 13:43:09;;;;;;;4.72;1.33;;;22.70;85.50;;;;;;5012057;28;20030;-74
2021/10/02 13:45:40;;;;;;;3.88;1.50;;;22.70;85.10;;;;;;4994651;28;20505;-73
2021/10/02 13:48:08;;;;;;;2.50;1.13;;;22.70;84.10;;;;;;5012013;28;20075;-74
2021/10/02 13:50:36;;;;;;;23.80;3.10;;;22.70;84.50;;;;;;5010867;28;20785;-73
2021/10/02 13:53:03;;;;;;;1.75;1.33;;;22.70;84.50;;;;;;4995120;28;20041;-73
2021/10/02 13:55:30;;;;;;;3.42;1.55;;;22.70;84.30;;;;;;5011315;28;20075;-73
2021/10/02 13:57:57;;;;;;;1.65;0.85;;;22.60;83.70;;;;;;5012058;28;20022;-75